createdAt,value
2023-02-20T00:01:24.370Z,4.24
2023-02-20T00:03:51.012Z,4.26
2023-02-20T00:06:17.573Z,4.26
2023-02-20T00:08:44.298Z,4.28
2023-02-20T00:11:10.992Z,4.29
2023-02-20T00:13:40.556Z,4.30
2023-02-20T00:16:07.623Z,4.31
2023-02-20T00:18:34.232Z,4.31
2023-02-20T00:21:00.866Z,4.32
2023-02-20T00:23:29.763Z,4.34
2023-02-20T00:25:56.393Z,4.34
2023-02-20T00:28:22.881Z,4.36
2023-02-20T00:30:50.230Z,4.38
2023-02-20T00:33:17.182Z,4.40
2023-02-20T00:35:44.123Z,4.42
2023-02-20T00:38:10.625Z,4.40
2023-02-20T00:40:37.167Z,4.42
2023-02-20T00:43:03.779Z,4.42
2023-02-20T00:45:30.651Z,4.42
2023-02-20T00:47:57.249Z,4.43
2023-02-20T00:50:23.882Z,4.42
2023-02-20T00:52:53.150Z,4.39
2023-02-20T00:55:19.946Z,4.38
2023-02-20T00:57:53.845Z,4.37
2023-02-20T01:00:27.033Z,4.34
2023-02-20T01:02:53.954Z,4.32
2023-02-20T01:05:20.942Z,4.31
2023-02-20T01:07:47.672Z,4.30
2023-02-20T01:10:15.026Z,4.29
2023-02-20T01:12:41.761Z,4.28
2023-02-20T01:15:09.173Z,4.24
2023-02-20T01:17:35.816Z,4.24
2023-02-20T01:20:02.502Z,4.22
2023-02-20T01:22:29.141Z,4.18
2023-02-20T01:24:55.739Z,4.18
2023-02-20T01:27:22.364Z,4.16
2023-02-20T01:29:49.048Z,4.15
2023-02-20T01:32:15.817Z,4.12
2023-02-20T01:34:42.474Z,4.13
2023-02-20T01:37:14.487Z,4.11
2023-02-20T01:39:41.470Z,4.12
2023-02-20T01:42:17.918Z,4.14
2023-02-20T01:44:44.797Z,4.11
2023-02-20T01:47:20.804Z,4.13
2023-02-20T01:49:56.971Z,4.12
2023-02-20T01:52:33.285Z,4.12
2023-02-20T01:55:14.925Z,4.12
2023-02-20T01:57:48.382Z,4.14
2023-02-20T02:00:19.816Z,4.18
2023-02-20T02:03:02.113Z,4.24
2023-02-20T02:05:30.724Z,4.29
2023-02-20T02:08:00.003Z,4.32
2023-02-20T02:10:49.414Z,4.37
2023-02-20T02:13:16.002Z,4.39
2023-02-20T02:15:42.710Z,4.44
2023-02-20T02:18:49.056Z,4.48
2023-02-20T02:21:21.808Z,4.55
2023-02-20T02:24:33.117Z,4.62
2023-02-20T02:27:11.746Z,4.67
2023-02-20T02:29:56.537Z,4.71
2023-02-20T02:32:34.006Z,4.72
2023-02-20T02:35:36.021Z,4.77
2023-02-20T02:38:28.152Z,4.79
2023-02-20T02:41:07.838Z,4.82
2023-02-20T02:44:02.026Z,4.89
2023-02-20T02:46:43.780Z,4.93
2023-02-20T02:49:36.761Z,4.98
2023-02-20T02:52:10.895Z,5.01
2023-02-20T02:54:37.672Z,5.05
2023-02-20T02:57:27.170Z,5.08
2023-02-20T03:00:05.120Z,5.10
2023-02-20T03:02:49.218Z,5.13
2023-02-20T03:05:21.512Z,5.19
2023-02-20T03:07:53.547Z,5.22
2023-02-20T03:10:31.806Z,5.25
2023-02-20T03:13:04.336Z,5.29
2023-02-20T03:15:36.627Z,5.32
2023-02-20T03:18:29.458Z,5.36
2023-02-20T03:21:01.327Z,5.40
2023-02-20T03:23:34.626Z,5.42
2023-02-20T03:26:05.345Z,5.46
2023-02-20T03:28:39.769Z,5.48
2023-02-20T03:31:24.399Z,5.50
2023-02-20T03:34:18.843Z,5.55
2023-02-20T03:37:25.877Z,5.56
2023-02-20T03:40:14.085Z,5.59
2023-02-20T03:43:04.210Z,5.62
2023-02-20T03:45:32.695Z,5.66
2023-02-20T03:48:03.217Z,5.69
2023-02-20T03:50:48.456Z,5.69
2023-02-20T03:53:15.436Z,5.71
2023-02-20T03:55:42.141Z,5.73
2023-02-20T03:58:12.452Z,5.74
2023-02-20T04:00:46.455Z,5.76
2023-02-20T04:03:17.718Z,5.77
2023-02-20T04:05:49.119Z,5.80
2023-02-20T04:08:39.524Z,5.80
2023-02-20T04:11:23.856Z,5.82
2023-02-20T04:13:53.587Z,5.85
2023-02-20T04:16:23.962Z,5.86
2023-02-20T04:18:52.988Z,5.87
2023-02-20T04:21:39.990Z,5.89
2023-02-20T04:24:11.530Z,5.90
2023-02-20T04:26:38.454Z,5.93
2023-02-20T04:29:06.361Z,5.96
2023-02-20T04:31:33.438Z,5.97
2023-02-20T04:34:00.017Z,5.98
2023-02-20T04:36:27.145Z,6.01
2023-02-20T04:38:53.791Z,6.04
2023-02-20T04:41:20.447Z,6.05
2023-02-20T04:43:47.839Z,6.06
2023-02-20T04:46:19.843Z,6.09
2023-02-20T04:48:46.524Z,6.10
2023-02-20T04:51:13.160Z,6.11
2023-02-20T04:53:39.852Z,6.13
2023-02-20T04:56:06.852Z,6.13
2023-02-20T04:58:36.951Z,6.15
2023-02-20T05:01:03.639Z,6.15
2023-02-20T05:03:30.532Z,6.18
2023-02-20T05:05:57.222Z,6.20
2023-02-20T05:08:26.338Z,6.22
2023-02-20T05:10:53.250Z,6.22
2023-02-20T05:13:19.899Z,6.23
2023-02-20T05:15:46.493Z,6.23
2023-02-20T05:18:24.427Z,6.24
2023-02-20T05:21:09.561Z,6.25
2023-02-20T05:23:48.506Z,6.27
2023-02-20T05:26:19.707Z,6.28
2023-02-20T05:28:46.544Z,6.28
2023-02-20T05:31:16.311Z,6.28
2023-02-20T05:33:43.999Z,6.29
2023-02-20T05:36:10.795Z,6.31
2023-02-20T05:38:37.788Z,6.34
2023-02-20T05:41:06.944Z,6.34
2023-02-20T05:43:33.578Z,6.34
2023-02-20T05:46:00.230Z,6.35
2023-02-20T05:48:29.904Z,6.36
2023-02-20T05:50:56.891Z,6.38
2023-02-20T05:53:23.531Z,6.40
2023-02-20T05:55:50.406Z,6.40
2023-02-20T05:58:17.197Z,6.42
2023-02-20T06:00:43.877Z,6.42
2023-02-20T06:03:10.502Z,6.43
2023-02-20T06:05:37.269Z,6.45
2023-02-20T06:08:04.864Z,6.45
2023-02-20T06:10:31.806Z,6.46
2023-02-20T06:12:58.541Z,6.47
2023-02-20T06:15:25.641Z,6.50
2023-02-20T06:17:52.815Z,6.52
2023-02-20T06:20:20.962Z,6.53
2023-02-20T06:22:50.619Z,6.53
2023-02-20T06:25:17.360Z,6.56
2023-02-20T06:27:46.207Z,6.56
2023-02-20T06:30:13.356Z,6.57
2023-02-20T06:32:40.049Z,6.58
2023-02-20T06:35:07.294Z,6.60
2023-02-20T06:37:33.992Z,6.60
2023-02-20T06:40:00.693Z,6.62
2023-02-20T06:42:27.330Z,6.63
2023-02-20T06:44:53.974Z,6.64
2023-02-20T06:47:20.779Z,6.65
2023-02-20T06:49:47.689Z,6.66
2023-02-20T06:52:14.839Z,6.65
2023-02-20T06:54:41.401Z,6.67
2023-02-20T06:57:07.980Z,6.69
2023-02-20T06:59:39.962Z,6.69
2023-02-20T07:02:10.858Z,6.70
2023-02-20T07:04:37.514Z,6.70
2023-02-20T07:07:04.152Z,6.69
2023-02-20T07:09:30.800Z,6.71
2023-02-20T07:11:57.964Z,6.72
2023-02-20T07:14:24.498Z,6.73
2023-02-20T07:16:51.083Z,6.74
2023-02-20T07:19:17.598Z,6.74
2023-02-20T07:21:48.714Z,6.77
2023-02-20T07:24:15.326Z,6.78
2023-02-20T07:26:42.061Z,6.77
2023-02-20T07:29:09.070Z,6.80
2023-02-20T07:31:35.878Z,6.81
2023-02-20T07:34:02.607Z,6.83
2023-02-20T07:36:29.213Z,6.83
2023-02-20T07:38:56.771Z,6.86
2023-02-20T07:41:25.136Z,6.87
2023-02-20T07:43:51.688Z,6.90
2023-02-20T07:46:20.216Z,6.91
2023-02-20T07:48:47.169Z,6.94
2023-02-20T07:51:14.432Z,6.94
2023-02-20T07:53:47.816Z,6.96
2023-02-20T07:56:14.634Z,7.00
2023-02-20T07:58:42.254Z,7.02
2023-02-20T08:01:08.897Z,7.05
2023-02-20T08:03:35.367Z,7.08
2023-02-20T08:06:01.902Z,7.10
2023-02-20T08:08:28.504Z,7.14
2023-02-20T08:11:08.346Z,7.16
2023-02-20T08:13:35.768Z,7.20
2023-02-20T08:16:02.420Z,7.26
2023-02-20T08:18:29.127Z,7.29
2023-02-20T08:20:55.563Z,7.31
2023-02-20T08:23:24.413Z,7.35
2023-02-20T08:25:52.086Z,7.41
2023-02-20T08:28:19.354Z,7.45
2023-02-20T08:30:46.176Z,7.48
2023-02-20T08:33:13.715Z,7.47
2023-02-20T08:35:40.403Z,7.47
2023-02-20T08:38:24.596Z,7.51
2023-02-20T08:40:51.158Z,7.60
2023-02-20T08:43:17.928Z,7.68
2023-02-20T08:45:44.427Z,7.71
2023-02-20T08:48:10.989Z,7.77
2023-02-20T08:50:37.497Z,7.78
2023-02-20T08:53:03.978Z,7.83
2023-02-20T08:55:30.436Z,7.83
2023-02-20T08:57:57.181Z,7.82
2023-02-20T09:00:23.797Z,7.82
2023-02-20T09:02:50.394Z,7.81
2023-02-20T09:05:18.037Z,7.79
2023-02-20T09:07:45.465Z,7.78
2023-02-20T09:10:12.003Z,7.82
2023-02-20T09:12:42.274Z,7.82
2023-02-20T09:15:10.138Z,7.84
2023-02-20T09:17:36.839Z,7.80
2023-02-20T09:20:03.876Z,7.81
2023-02-20T09:22:30.740Z,7.80
2023-02-20T09:24:57.659Z,7.76
2023-02-20T09:27:24.248Z,7.73
2023-02-20T09:29:50.833Z,7.75
2023-02-20T09:32:17.604Z,7.72
2023-02-20T09:34:45.138Z,7.70
2023-02-20T09:37:12.082Z,7.71
2023-02-20T09:39:38.643Z,7.71
2023-02-20T09:42:44.202Z,7.75
2023-02-20T09:45:19.821Z,7.80
2023-02-20T09:47:58.545Z,7.87
2023-02-20T09:50:44.467Z,7.93
2023-02-20T09:53:40.883Z,7.92
2023-02-20T09:56:15.864Z,7.94
2023-02-20T09:58:55.244Z,7.94
2023-02-20T10:01:23.352Z,7.95
2023-02-20T10:04:02.438Z,7.96
2023-02-20T10:06:32.308Z,8.00
2023-02-20T10:09:00.951Z,8.05
2023-02-20T10:11:42.099Z,8.06
2023-02-20T10:14:08.523Z,8.07
2023-02-20T10:16:43.328Z,8.08
2023-02-20T10:19:31.150Z,8.16
2023-02-20T10:22:25.886Z,8.23
2023-02-20T10:25:10.076Z,8.22
2023-02-20T10:27:42.722Z,8.23
2023-02-20T10:30:15.941Z,8.20
2023-02-20T10:32:55.048Z,8.23
2023-02-20T10:35:26.645Z,8.30
2023-02-20T10:37:57.407Z,8.28
2023-02-20T10:40:33.315Z,8.36
2023-02-20T10:43:18.563Z,8.37
2023-02-20T10:45:54.166Z,8.35
2023-02-20T10:48:24.160Z,8.32
2023-02-20T10:50:59.622Z,8.32
2023-02-20T10:53:39.682Z,8.43
2023-02-20T10:56:39.240Z,8.44
2023-02-20T10:59:20.380Z,8.42
2023-02-20T11:01:55.364Z,8.40
2023-02-20T11:04:27.220Z,8.36
2023-02-20T11:07:02.603Z,8.37
2023-02-20T11:09:29.326Z,8.38
2023-02-20T11:11:56.487Z,8.40
2023-02-20T11:14:40.917Z,8.37
2023-02-20T11:17:22.727Z,8.33
2023-02-20T11:19:57.194Z,8.38
2023-02-20T11:22:47.661Z,8.46
2023-02-20T11:25:15.869Z,8.53
2023-02-20T11:27:42.534Z,8.56
2023-02-20T11:30:31.311Z,8.54
2023-02-20T11:33:17.723Z,8.52
2023-02-20T11:35:47.179Z,8.52
2023-02-20T11:38:28.876Z,8.52
2023-02-20T11:40:56.861Z,8.51
2023-02-20T11:43:43.508Z,8.51
2023-02-20T11:46:14.470Z,8.52
2023-02-20T11:48:54.497Z,8.51
2023-02-20T11:51:39.629Z,8.49
2023-02-20T11:54:07.701Z,8.47
2023-02-20T11:56:34.621Z,8.47
2023-02-20T11:59:27.821Z,8.47
2023-02-20T12:02:00.865Z,8.44
2023-02-20T12:04:27.780Z,8.44
2023-02-20T12:06:54.412Z,8.42
2023-02-20T12:09:28.319Z,8.39
2023-02-20T12:11:57.696Z,8.39
2023-02-20T12:14:24.917Z,8.44
2023-02-20T12:17:28.642Z,8.46
2023-02-20T12:20:09.312Z,8.48
2023-02-20T12:22:38.111Z,8.49
2023-02-20T12:25:31.115Z,8.51
2023-02-20T12:28:17.747Z,8.49
2023-02-20T12:31:13.423Z,8.52
2023-02-20T12:33:54.891Z,8.54
2023-02-20T12:36:52.915Z,8.60
2023-02-20T12:39:38.168Z,8.60
2023-02-20T12:42:19.927Z,8.61
2023-02-20T12:45:01.762Z,8.63
2023-02-20T12:47:34.489Z,8.65
2023-02-20T12:50:22.845Z,8.69
2023-02-20T12:52:57.734Z,8.75
2023-02-20T12:56:15.440Z,8.82
2023-02-20T12:59:01.097Z,8.85
2023-02-20T13:01:39.204Z,8.85
2023-02-20T13:04:19.497Z,8.83
2023-02-20T13:07:07.380Z,8.88
2023-02-20T13:09:39.970Z,8.92
2023-02-20T13:12:13.205Z,8.96
2023-02-20T13:14:56.316Z,9.01
2023-02-20T13:17:49.873Z,9.12
2023-02-20T13:20:24.262Z,9.10
2023-02-20T13:23:00.974Z,9.04
2023-02-20T13:25:33.594Z,9.01
2023-02-20T13:28:26.311Z,8.98
2023-02-20T13:31:11.031Z,8.96
2023-02-20T13:33:38.628Z,8.96
2023-02-20T13:36:07.024Z,8.94
2023-02-20T13:38:33.538Z,8.93
2023-02-20T13:41:05.816Z,8.95
2023-02-20T13:43:33.908Z,9.02
2023-02-20T13:46:00.755Z,9.05
2023-02-20T13:48:30.490Z,9.05
2023-02-20T13:51:15.774Z,9.04
2023-02-20T13:53:42.240Z,9.06
2023-02-20T13:56:48.542Z,9.05
2023-02-20T13:59:19.431Z,8.99
2023-02-20T14:01:58.401Z,8.99
2023-02-20T14:04:25.493Z,8.97
2023-02-20T14:06:58.394Z,8.94
2023-02-20T14:09:31.547Z,8.88
2023-02-20T14:12:13.408Z,8.87
2023-02-20T14:14:44.902Z,8.87
2023-02-20T14:17:19.350Z,8.88
2023-02-20T14:19:48.736Z,8.88
2023-02-20T14:22:25.645Z,8.86
2023-02-20T14:25:27.481Z,8.85
2023-02-20T14:28:08.459Z,8.80
2023-02-20T14:30:35.380Z,8.78
2023-02-20T14:33:21.914Z,8.77
2023-02-20T14:35:54.561Z,8.76
2023-02-20T14:38:42.486Z,8.73
2023-02-20T14:41:22.031Z,8.72
2023-02-20T14:44:02.765Z,8.70
2023-02-20T14:46:38.176Z,8.70
2023-02-20T14:49:12.426Z,8.68
2023-02-20T14:51:39.062Z,8.65
2023-02-20T14:54:14.487Z,8.65
2023-02-20T14:56:41.123Z,8.62
2023-02-20T14:59:25.533Z,8.62
2023-02-20T15:01:58.738Z,8.61
2023-02-20T15:04:26.661Z,8.58
2023-02-20T15:07:00.937Z,8.58
2023-02-20T15:09:37.266Z,8.57
2023-02-20T15:12:06.828Z,8.57
2023-02-20T15:14:33.925Z,8.52
2023-02-20T15:17:13.567Z,8.50
2023-02-20T15:19:42.830Z,8.50
2023-02-20T15:22:40.961Z,8.46
2023-02-20T15:25:20.799Z,8.47
2023-02-20T15:28:13.533Z,8.46
2023-02-20T15:31:10.818Z,8.46
2023-02-20T15:33:50.119Z,8.44
2023-02-20T15:36:20.933Z,8.38
2023-02-20T15:38:48.046Z,8.37
2023-02-20T15:41:14.774Z,8.34
2023-02-20T15:43:51.304Z,8.31
2023-02-20T15:46:19.730Z,8.32
2023-02-20T15:48:47.001Z,8.33
2023-02-20T15:51:19.826Z,8.32
2023-02-20T15:53:46.623Z,8.30
2023-02-20T15:56:14.457Z,8.29
2023-02-20T15:58:44.530Z,8.30
2023-02-20T16:01:12.056Z,8.32
2023-02-20T16:03:50.927Z,8.31
2023-02-20T16:06:21.562Z,8.31
2023-02-20T16:08:50.315Z,8.30
2023-02-20T16:11:18.287Z,8.28
2023-02-20T16:13:48.417Z,8.25
2023-02-20T16:16:25.412Z,8.27
2023-02-20T16:18:55.152Z,8.22
2023-02-20T16:21:23.754Z,8.23
2023-02-20T16:23:50.702Z,8.22
2023-02-20T16:26:19.598Z,8.21
2023-02-20T16:28:57.766Z,8.18
2023-02-20T16:31:53.360Z,8.19
2023-02-20T16:34:22.387Z,8.17
2023-02-20T16:36:49.070Z,8.18
2023-02-20T16:39:25.716Z,8.14
2023-02-20T16:41:53.723Z,8.13
2023-02-20T16:44:35.978Z,8.13
2023-02-20T16:47:02.654Z,8.11
2023-02-20T16:49:29.225Z,8.09
2023-02-20T16:52:01.972Z,8.07
2023-02-20T16:54:28.873Z,8.06
2023-02-20T16:56:55.865Z,8.06
2023-02-20T16:59:22.789Z,8.06
2023-02-20T17:01:51.648Z,8.07
2023-02-20T17:04:19.959Z,8.04
2023-02-20T17:06:46.860Z,8.04
2023-02-20T17:09:13.434Z,8.01
2023-02-20T17:11:40.092Z,8.02
2023-02-20T17:14:06.620Z,8.02
2023-02-20T17:16:33.113Z,8.02
2023-02-20T17:18:59.686Z,8.02
2023-02-20T17:21:26.139Z,8.00
2023-02-20T17:23:52.716Z,8.00
2023-02-20T17:26:19.284Z,8.00
2023-02-20T17:28:45.779Z,7.99
2023-02-20T17:31:12.521Z,7.98
2023-02-20T17:33:40.887Z,7.97
2023-02-20T17:36:07.794Z,7.94
2023-02-20T17:38:34.307Z,7.94
2023-02-20T17:41:01.030Z,7.93
2023-02-20T17:43:27.690Z,7.94
2023-02-20T17:45:54.198Z,7.92
2023-02-20T17:48:20.672Z,7.90
2023-02-20T17:50:47.221Z,7.87
2023-02-20T17:53:15.060Z,7.87
2023-02-20T17:55:41.862Z,7.85
2023-02-20T17:58:08.399Z,7.84
2023-02-20T18:00:35.019Z,7.81
2023-02-20T18:03:01.658Z,7.82
2023-02-20T18:05:28.152Z,7.75
2023-02-20T18:07:54.703Z,7.73
2023-02-20T18:10:22.608Z,7.70
2023-02-20T18:13:02.481Z,7.66
2023-02-20T18:15:35.025Z,7.64
2023-02-20T18:18:02.695Z,7.60
2023-02-20T18:20:29.670Z,7.60
2023-02-20T18:22:57.367Z,7.63
2023-02-20T18:25:38.088Z,7.64
2023-02-20T18:28:06.940Z,7.63
2023-02-20T18:30:34.596Z,7.65
2023-02-20T18:33:01.385Z,7.64
2023-02-20T18:35:28.254Z,7.63
2023-02-20T18:37:54.895Z,7.64
2023-02-20T18:40:23.663Z,7.63
2023-02-20T18:42:51.439Z,7.63
2023-02-20T18:45:18.548Z,7.60
2023-02-20T18:47:53.407Z,7.59
2023-02-20T18:50:20.908Z,7.58
2023-02-20T18:52:48.943Z,7.57
2023-02-20T18:55:20.476Z,7.57
2023-02-20T18:57:48.370Z,7.57
2023-02-20T19:00:26.444Z,7.54
2023-02-20T19:02:54.926Z,7.55
2023-02-20T19:05:22.320Z,7.54
2023-02-20T19:07:48.925Z,7.54
2023-02-20T19:10:21.184Z,7.55
2023-02-20T19:12:48.108Z,7.55
2023-02-20T19:15:15.201Z,7.55
2023-02-20T19:17:45.107Z,7.54
2023-02-20T19:20:26.851Z,7.55
2023-02-20T19:22:55.605Z,7.56
2023-02-20T19:25:22.269Z,7.54
2023-02-20T19:27:48.977Z,7.53
2023-02-20T19:30:16.677Z,7.52
2023-02-20T19:32:43.342Z,7.52
2023-02-20T19:35:10.533Z,7.51
2023-02-20T19:37:38.754Z,7.52
2023-02-20T19:40:06.991Z,7.53
2023-02-20T19:42:33.446Z,7.53
2023-02-20T19:44:59.943Z,7.51
2023-02-20T19:47:27.346Z,7.51
2023-02-20T19:49:53.932Z,7.52
2023-02-20T19:52:20.356Z,7.52
2023-02-20T19:54:47.562Z,7.51
2023-02-20T19:57:14.573Z,7.50
2023-02-20T19:59:43.780Z,7.51
2023-02-20T20:02:13.415Z,7.51
2023-02-20T20:04:40.111Z,7.52
2023-02-20T20:07:06.826Z,7.51
2023-02-20T20:09:37.136Z,7.52
2023-02-20T20:12:26.294Z,7.52
2023-02-20T20:14:53.182Z,7.53
2023-02-20T20:17:19.953Z,7.55
2023-02-20T20:19:58.590Z,7.54
2023-02-20T20:22:26.526Z,7.54
2023-02-20T20:24:55.316Z,7.52
2023-02-20T20:27:23.515Z,7.52
2023-02-20T20:29:51.480Z,7.53
2023-02-20T20:32:19.857Z,7.53
2023-02-20T20:34:55.171Z,7.54
2023-02-20T20:37:24.144Z,7.52
2023-02-20T20:40:00.610Z,7.55
2023-02-20T20:42:28.481Z,7.56
2023-02-20T20:45:00.618Z,7.55
2023-02-20T20:47:29.351Z,7.56
2023-02-20T20:49:56.981Z,7.57
2023-02-20T20:52:26.673Z,7.56
2023-02-20T20:54:55.553Z,7.58
2023-02-20T20:57:25.298Z,7.59
2023-02-20T20:59:54.857Z,7.58
2023-02-20T21:02:22.414Z,7.57
2023-02-20T21:04:52.877Z,7.57
2023-02-20T21:07:21.995Z,7.57
2023-02-20T21:09:48.589Z,7.58
2023-02-20T21:12:15.763Z,7.58
2023-02-20T21:14:42.920Z,7.58
2023-02-20T21:17:11.114Z,7.60
2023-02-20T21:19:37.742Z,7.59
2023-02-20T21:22:05.041Z,7.60
2023-02-20T21:24:35.631Z,7.58
2023-02-20T21:27:02.351Z,7.60
2023-02-20T21:29:28.910Z,7.60
2023-02-20T21:31:58.748Z,7.62
2023-02-20T21:34:27.270Z,7.65
2023-02-20T21:36:54.048Z,7.64
2023-02-20T21:39:21.298Z,7.64
2023-02-20T21:42:06.449Z,7.65
2023-02-20T21:44:32.955Z,7.65
2023-02-20T21:47:02.736Z,7.66
2023-02-20T21:49:31.645Z,7.66
2023-02-20T21:51:58.853Z,7.68
2023-02-20T21:54:32.026Z,7.68
2023-02-20T21:56:59.788Z,7.67
2023-02-20T21:59:26.849Z,7.68
2023-02-20T22:01:53.424Z,7.68
2023-02-20T22:04:22.567Z,7.70
2023-02-20T22:07:08.768Z,7.70
2023-02-20T22:09:55.238Z,7.71
2023-02-20T22:12:40.627Z,7.70
2023-02-20T22:15:25.921Z,7.71
2023-02-20T22:18:13.390Z,7.70
2023-02-20T22:20:58.615Z,7.70
2023-02-20T22:23:43.794Z,7.69
2023-02-20T22:26:29.694Z,7.71
2023-02-20T22:29:18.033Z,7.70
2023-02-20T22:32:03.399Z,7.70
2023-02-20T22:35:02.196Z,7.71
2023-02-20T22:37:54.707Z,7.70
2023-02-20T22:40:39.876Z,7.70
2023-02-20T22:43:25.231Z,7.70
2023-02-20T22:46:10.302Z,7.70
2023-02-20T22:48:55.664Z,7.70
2023-02-20T22:51:40.557Z,7.70
2023-02-20T22:54:25.355Z,7.71
2023-02-20T22:57:10.556Z,7.71
2023-02-20T22:59:55.745Z,7.70
2023-02-20T23:02:40.728Z,7.70
2023-02-20T23:05:25.822Z,7.71
2023-02-20T23:08:10.901Z,7.69
2023-02-20T23:10:56.032Z,7.70
2023-02-20T23:13:41.106Z,7.70
2023-02-20T23:16:26.610Z,7.70
2023-02-20T23:19:11.698Z,7.70
2023-02-20T23:21:56.933Z,7.70
2023-02-20T23:24:42.095Z,7.69
2023-02-20T23:27:28.524Z,7.69
2023-02-20T23:30:16.236Z,7.69
2023-02-20T23:33:01.546Z,7.69
2023-02-20T23:35:46.759Z,7.68
2023-02-20T23:38:31.925Z,7.68
2023-02-20T23:41:17.319Z,7.68
2023-02-20T23:44:02.635Z,7.68
2023-02-20T23:46:48.049Z,7.67
2023-02-20T23:49:33.587Z,7.66
2023-02-20T23:52:18.659Z,7.66
2023-02-20T23:55:03.880Z,7.68
2023-02-20T23:57:48.813Z,7.69
